Almagrundet, Sweden

7:28 AM CEST on April 26, 2015 (GMT +0200)
Saltaro | | Change Station
CLOSE
Current Station
Personal Weather Station
Location: Saltaro, VARMDO
Elevation: 46 ft
Nearby Weather Stations

Elev 46 ft 59.34 °N, 18.62 °E | Updated 29 seconds ago

Scattered Clouds
Scattered Clouds
49.5 °F
Feels Like 50 °F
N
0.0
Wind Variable Wind from West
Gusts 1.6 mph

Today
High -- | Low -- °F
--% Chance of Precip.
Yesterday
High -- | Low -- °F
Precip. -- in
5:00 AM 8:24 PM
First Quarter, 52% visible
Pressure 29.53 in
Visibility 3.1 miles
Clouds Few 500 ft
Scattered Clouds 2900 ft
Windchill 50 °F
Dew Point 46 °F
Humidity 87%
Rainfall 0.00 in
Snow Depth Not available.
UV 1 out of 12
Pollen Not available.
Air Quality Not available.
Flu Activity Not available.
METAR ESSB 260520Z AUTO 22006KT 5000 BR FEW005/// SCT029/// 10/09 Q1000

More Conditions Fewer Conditions

Pressure 29.53 in
Visibility 3.1 miles
Clouds Few 500 ft
Scattered Clouds 2900 ft
Windchill 50 °F
Dew Point 46 °F
Humidity 87%
Rainfall 0.00 in
Snow Depth Not available.
UV 1 out of 12
Pollen Not available.
Air Quality Not available.
Flu Activity Not available.
METAR ESSB 260520Z AUTO 22006KT 5000 BR FEW005/// SCT029/// 10/09 Q1000

More Conditions Fewer Conditions

10-Day Weather Forecast

Almanac

Astronomy

Apr. 26, 2015 Rise Set
Actual Time
Civil Twilight
Nautical Twilight
Astronomical Twilight
Moon
Length of Visible Light
Length of Day
Tomorrow will be .
, % of the Moon is Illuminated

Today's Extremes

Country Highs Country Lows

Community

WunderPhotos

Upload Photos

1,816,945 photos uploaded!

WunderBlogs® & News

Nearby

Air Quality

  Air Quality AQ Index Pollutant
Not available.

Snow Depth

Station Depth Elevation

Earthquake Activity

City Distance Mag. Time & Date
Minimum magnitude displayed is 2.5.

Coastal Water Temperatures

Place Temperature

Stations

Nearby Weather Stations

Station Location Temp. Windchill Dew Point Humidity Wind Precip. Elev Updated Type